createdAt,value
2018-08-03T07:46:24.260Z,99.90
2018-08-03T07:51:20.304Z,99.90
2018-08-03T07:53:48.489Z,99.90
2018-08-03T07:56:16.651Z,99.90
2018-08-03T07:58:44.804Z,99.90
2018-08-03T08:01:12.976Z,99.90
2018-08-03T08:03:41.115Z,99.90
2018-08-03T08:08:37.164Z,99.90
2018-08-03T08:11:05.318Z,99.90
2018-08-03T08:16:01.361Z,99.90
2018-08-03T08:18:29.532Z,99.90
2018-08-03T08:20:57.684Z,99.90
2018-08-03T08:23:25.819Z,99.90
2018-08-03T08:25:53.976Z,99.90
2018-08-03T08:28:22.095Z,99.90
2018-08-03T08:30:50.236Z,99.90
2018-08-03T08:33:18.376Z,99.90
2018-08-03T08:35:46.504Z,99.90
2018-08-03T08:38:14.644Z,99.90
2018-08-03T08:40:42.788Z,99.90
2018-08-03T08:43:10.956Z,99.90
2018-08-03T08:45:39.092Z,99.90
2018-08-03T08:48:07.240Z,99.90
2018-08-03T08:50:35.392Z,99.90
2018-08-03T08:53:03.537Z,99.90
2018-08-03T08:57:59.583Z,99.90
2018-08-03T09:00:27.776Z,99.90
2018-08-03T09:02:55.941Z,99.90
2018-08-03T09:05:24.109Z,99.90
2018-08-03T09:07:52.337Z,99.90
2018-08-03T09:10:20.404Z,99.90
2018-08-03T09:15:16.489Z,99.90
2018-08-03T09:17:44.621Z,99.90
2018-08-03T09:20:12.768Z,99.90
2018-08-03T09:22:40.898Z,99.90
2018-08-03T09:25:09.061Z,99.90
2018-08-03T09:27:37.247Z,99.90
2018-08-03T09:30:07.117Z,99.90
2018-08-03T09:32:35.245Z,99.90
2018-08-03T09:35:03.432Z,99.90
2018-08-03T09:39:59.509Z,99.90
2018-08-03T09:44:55.652Z,99.90
2018-08-03T09:47:23.818Z,99.90
2018-08-03T09:52:19.884Z,99.90
2018-08-03T09:54:48.040Z,99.90
2018-08-03T09:59:44.112Z,99.90
2018-08-03T10:04:40.236Z,99.90
2018-08-03T10:07:08.452Z,99.90
2018-08-03T10:09:36.609Z,99.90
2018-08-03T10:12:04.747Z,99.90
2018-08-03T10:14:32.934Z,99.70
2018-08-03T10:17:01.092Z,98.80
2018-08-03T10:21:57.186Z,98.70
2018-08-03T10:26:53.271Z,93.10
2018-08-03T10:31:49.333Z,93.00
2018-08-03T10:34:17.468Z,91.50
2018-08-03T10:36:45.669Z,91.20
2018-08-03T10:44:10.729Z,91.50
2018-08-03T10:46:38.885Z,91.70
2018-08-03T10:49:13.423Z,90.70
2018-08-03T10:51:42.469Z,90.00
2018-08-03T10:56:38.580Z,89.90
2018-08-03T10:59:06.776Z,83.30
2018-08-03T11:01:35.010Z,83.10
2018-08-03T11:04:03.128Z,81.00
2018-08-03T11:06:31.243Z,82.10
2018-08-03T11:08:59.385Z,82.60
2018-08-03T11:11:27.562Z,81.40
2018-08-03T11:13:55.737Z,83.20
2018-08-03T11:16:23.813Z,76.90
2018-08-03T11:18:51.995Z,76.30
2018-08-03T11:26:15.984Z,73.20
2018-08-03T11:28:44.128Z,68.90
2018-08-03T12:53:10.123Z,57.00
2018-08-03T12:55:38.273Z,56.20
2018-08-03T12:58:06.505Z,54.30
2018-08-03T13:03:02.584Z,55.30
2018-08-03T13:07:58.811Z,55.70
2018-08-03T13:10:26.800Z,53.50
2018-08-03T13:12:54.977Z,51.60
2018-08-03T13:15:23.117Z,52.30
2018-08-03T13:17:51.257Z,54.60
2018-08-03T13:27:43.147Z,51.30
2018-08-03T13:30:11.352Z,52.00
2018-08-03T13:32:39.491Z,50.00
2018-08-03T13:37:35.599Z,50.40
2018-08-03T13:40:03.754Z,51.20
2018-08-03T13:44:59.840Z,51.20
2018-08-03T13:47:28.000Z,51.70
2018-08-03T13:49:56.132Z,50.80
2018-08-03T13:52:24.288Z,50.40
2018-08-03T13:54:52.460Z,48.60
2018-08-03T13:57:20.592Z,50.30
2018-08-03T13:59:48.740Z,51.20
2018-08-03T14:04:46.943Z,49.40
2018-08-03T14:09:43.148Z,48.10
2018-08-03T14:14:39.904Z,48.70
2018-08-03T14:17:08.135Z,48.30
2018-08-03T14:19:36.341Z,46.30
2018-08-03T14:22:04.777Z,48.70
2018-08-03T14:24:33.008Z,47.60
2018-08-03T14:27:01.266Z,46.60
2018-08-03T14:29:29.517Z,48.40
2018-08-03T14:31:57.670Z,48.50
2018-08-03T14:34:25.804Z,50.50
2018-08-03T14:36:54.072Z,48.60
2018-08-03T14:39:22.200Z,48.00
2018-08-03T14:41:50.339Z,47.80
2018-08-03T14:44:18.572Z,48.70
2018-08-03T14:46:46.724Z,48.20
2018-08-03T14:49:14.880Z,45.70
2018-08-03T14:51:43.033Z,44.00
2018-08-03T14:56:39.089Z,44.30
2018-08-03T14:59:07.283Z,45.20
2018-08-03T15:01:35.417Z,45.60
2018-08-03T15:04:03.609Z,44.60
2018-08-03T15:08:59.704Z,47.30
2018-08-03T15:11:27.841Z,45.50
2018-08-03T15:13:56.079Z,46.80
2018-08-03T15:16:24.220Z,45.00
2018-08-03T15:18:52.492Z,44.00
2018-08-03T15:21:20.654Z,46.30
2018-08-03T15:23:48.780Z,44.90
2018-08-03T15:28:44.840Z,44.30
2018-08-03T15:31:12.992Z,44.90
2018-08-03T15:33:41.121Z,44.10
2018-08-03T15:36:09.269Z,44.60
2018-08-03T15:38:37.393Z,45.50
2018-08-03T15:41:05.544Z,44.30
2018-08-03T15:43:33.709Z,42.50
2018-08-03T15:46:01.889Z,43.80
2018-08-03T15:48:30.029Z,44.00
2018-08-03T15:50:58.180Z,43.80
2018-08-03T16:00:50.061Z,43.10
2018-08-03T16:05:47.041Z,43.40
2018-08-03T16:08:15.196Z,43.60
2018-08-03T16:18:07.082Z,42.90
2018-08-03T16:20:35.283Z,42.70
2018-08-03T16:23:03.384Z,43.70
2018-08-03T16:27:59.432Z,42.80
2018-08-03T16:30:27.572Z,43.30
2018-08-03T16:32:55.705Z,42.60
2018-08-03T16:35:23.886Z,43.60
2018-08-03T16:37:52.043Z,42.80
2018-08-03T16:40:20.189Z,42.50
2018-08-03T16:45:17.787Z,44.60
2018-08-03T16:47:46.476Z,44.50
2018-08-03T16:50:14.640Z,43.40
2018-08-03T16:52:42.786Z,44.30
2018-08-03T16:57:38.827Z,45.40
2018-08-03T17:05:02.850Z,45.40
2018-08-03T17:12:26.860Z,44.70
2018-08-03T17:14:55.022Z,46.00
2018-08-03T17:17:23.165Z,46.50
2018-08-03T17:22:19.240Z,45.70
2018-08-03T17:24:47.396Z,47.20
2018-08-03T17:29:43.404Z,47.30
2018-08-03T17:37:07.376Z,47.80
2018-08-03T17:39:35.524Z,49.40
2018-08-03T17:42:03.680Z,49.40
2018-08-03T17:44:31.819Z,49.80
2018-08-03T17:46:59.997Z,49.90
2018-08-03T17:49:28.133Z,50.60
2018-08-03T17:51:56.316Z,50.80
2018-08-03T17:56:52.399Z,51.60
2018-08-03T17:59:20.536Z,51.80
2018-08-03T18:04:16.601Z,52.50
2018-08-03T18:06:44.744Z,51.70
2018-08-03T18:11:40.820Z,52.60
2018-08-03T18:14:08.952Z,52.70
2018-08-03T18:16:37.087Z,53.50
2018-08-03T18:19:05.240Z,54.40
2018-08-03T18:21:33.371Z,55.00
2018-08-03T18:24:01.508Z,55.20
2018-08-03T18:26:29.638Z,55.70
2018-08-03T18:28:57.838Z,56.00
2018-08-03T18:31:25.942Z,56.60
2018-08-03T18:33:54.725Z,57.00
2018-08-03T18:36:22.861Z,57.20
2018-08-03T18:41:18.899Z,58.00
2018-08-03T18:46:14.990Z,57.90
2018-08-03T18:48:43.078Z,58.30
2018-08-03T18:53:39.164Z,59.10
2018-08-03T19:05:58.940Z,60.10
2018-08-03T19:08:27.120Z,60.80
2018-08-03T19:10:55.267Z,60.80
2018-08-03T19:13:23.405Z,61.40
2018-08-03T19:18:19.480Z,61.80
2018-08-03T19:20:47.604Z,61.80
2018-08-03T19:23:15.758Z,62.30
2018-08-03T19:25:44.059Z,62.30
2018-08-03T19:28:12.208Z,62.20
2018-08-03T19:30:40.388Z,62.20
2018-08-03T19:33:08.565Z,62.80
2018-08-03T19:35:36.729Z,63.20
2018-08-03T19:38:05.068Z,63.80
2018-08-03T19:40:33.205Z,64.50
2018-08-03T19:43:01.379Z,64.10
2018-08-03T19:45:29.540Z,64.70
2018-08-03T19:47:57.708Z,65.20
2018-08-03T19:52:53.767Z,66.10
2018-08-03T19:55:21.922Z,66.80
2018-08-03T19:57:50.042Z,66.80
2018-08-03T20:00:18.219Z,67.50
2018-08-03T20:02:46.344Z,68.70
2018-08-03T20:05:14.648Z,68.60
2018-08-03T20:07:42.627Z,69.50
2018-08-03T20:12:38.684Z,70.40
2018-08-03T20:15:07.271Z,70.80
2018-08-03T20:17:35.425Z,71.10
2018-08-03T20:20:03.605Z,71.90
2018-08-03T20:22:31.787Z,73.10
2018-08-03T20:27:27.827Z,74.80
2018-08-03T20:32:23.883Z,76.30
2018-08-03T20:34:52.021Z,78.60
2018-08-03T20:37:20.205Z,81.20
2018-08-03T20:39:48.340Z,81.00
2018-08-03T20:42:16.477Z,82.60
2018-08-03T20:44:44.651Z,84.20
2018-08-03T20:47:12.824Z,86.70
2018-08-03T20:52:08.909Z,90.20
2018-08-03T20:54:37.044Z,91.10
2018-08-03T20:57:05.253Z,92.00
2018-08-03T20:59:33.404Z,93.30
2018-08-03T21:02:01.551Z,94.30
2018-08-03T21:04:29.734Z,95.10
2018-08-03T21:06:57.853Z,97.00
2018-08-03T21:11:53.892Z,99.00
2018-08-03T21:14:22.071Z,99.90
2018-08-03T21:16:50.220Z,99.90
2018-08-03T21:19:18.361Z,99.90
2018-08-03T21:21:46.484Z,99.90
2018-08-03T21:24:14.641Z,99.90
2018-08-03T21:26:42.808Z,99.90
2018-08-03T21:31:38.864Z,99.90
2018-08-03T21:34:06.984Z,99.90
2018-08-03T21:36:35.118Z,99.90
2018-08-03T21:39:03.288Z,99.90
2018-08-03T21:41:31.423Z,99.90
2018-08-03T21:46:27.492Z,99.90
2018-08-03T21:48:55.651Z,99.90
2018-08-03T21:51:23.799Z,99.90
2018-08-03T21:53:51.937Z,99.90
2018-08-03T21:56:20.188Z,99.90
